sensor_id;sensor_type;location;lat;lon;timestamp;P1;durP1;ratioP1;P2;durP2;ratioP2
80677;SDS011;70042;52.494;5.502;2024-03-08T00:01:52;7.82;;;4.97;;
80677;SDS011;70042;52.494;5.502;2024-03-08T00:04:18;8.23;;;5.05;;
80677;SDS011;70042;52.494;5.502;2024-03-08T00:06:43;7.68;;;5.35;;
80677;SDS011;70042;52.494;5.502;2024-03-08T00:09:11;8.27;;;5.13;;
80677;SDS011;70042;52.494;5.502;2024-03-08T00:11:37;8.57;;;5.22;;
80677;SDS011;70042;52.494;5.502;2024-03-08T00:14:02;8.93;;;5.40;;
80677;SDS011;70042;52.494;5.502;2024-03-08T00:16:32;6.22;;;4.40;;
80677;SDS011;70042;52.494;5.502;2024-03-08T00:18:57;8.02;;;5.20;;
80677;SDS011;70042;52.494;5.502;2024-03-08T00:21:23;8.13;;;5.50;;
80677;SDS011;70042;52.494;5.502;2024-03-08T00:23:49;10.05;;;4.85;;
80677;SDS011;70042;52.494;5.502;2024-03-08T00:26:14;8.63;;;5.85;;
80677;SDS011;70042;52.494;5.502;2024-03-08T00:28:40;8.38;;;5.13;;
80677;SDS011;70042;52.494;5.502;2024-03-08T00:31:05;6.75;;;4.53;;
80677;SDS011;70042;52.494;5.502;2024-03-08T00:33:32;8.93;;;5.70;;
80677;SDS011;70042;52.494;5.502;2024-03-08T00:35:57;8.55;;;5.50;;
80677;SDS011;70042;52.494;5.502;2024-03-08T00:38:23;8.43;;;5.13;;
80677;SDS011;70042;52.494;5.502;2024-03-08T00:40:49;6.70;;;5.00;;
80677;SDS011;70042;52.494;5.502;2024-03-08T00:43:14;6.97;;;5.10;;
80677;SDS011;70042;52.494;5.502;2024-03-08T00:48:08;7.20;;;5.22;;
80677;SDS011;70042;52.494;5.502;2024-03-08T00:50:34;6.10;;;4.75;;
80677;SDS011;70042;52.494;5.502;2024-03-08T00:52:59;6.45;;;4.20;;
80677;SDS011;70042;52.494;5.502;2024-03-08T00:55:25;6.43;;;4.80;;
80677;SDS011;70042;52.494;5.502;2024-03-08T01:00:18;7.03;;;4.80;;
80677;SDS011;70042;52.494;5.502;2024-03-08T01:02:45;9.40;;;5.22;;
80677;SDS011;70042;52.494;5.502;2024-03-08T01:05:11;6.28;;;4.25;;
80677;SDS011;70042;52.494;5.502;2024-03-08T01:07:36;7.55;;;4.88;;
80677;SDS011;70042;52.494;5.502;2024-03-08T01:10:02;7.78;;;5.15;;
80677;SDS011;70042;52.494;5.502;2024-03-08T01:12:28;8.13;;;5.13;;
80677;SDS011;70042;52.494;5.502;2024-03-08T01:14:54;8.40;;;5.13;;
80677;SDS011;70042;52.494;5.502;2024-03-08T01:17:20;7.25;;;4.72;;
80677;SDS011;70042;52.494;5.502;2024-03-08T01:19:46;7.95;;;5.07;;
80677;SDS011;70042;52.494;5.502;2024-03-08T01:22:12;7.97;;;5.72;;
80677;SDS011;70042;52.494;5.502;2024-03-08T01:24:37;7.65;;;4.82;;
80677;SDS011;70042;52.494;5.502;2024-03-08T01:27:03;6.88;;;5.00;;
80677;SDS011;70042;52.494;5.502;2024-03-08T01:29:29;7.15;;;4.93;;
80677;SDS011;70042;52.494;5.502;2024-03-08T01:31:55;6.95;;;4.93;;
80677;SDS011;70042;52.494;5.502;2024-03-08T01:36:46;6.63;;;4.43;;
80677;SDS011;70042;52.494;5.502;2024-03-08T01:39:11;7.57;;;4.85;;
80677;SDS011;70042;52.494;5.502;2024-03-08T01:41:37;7.65;;;5.30;;
80677;SDS011;70042;52.494;5.502;2024-03-08T01:44:03;6.90;;;4.78;;
80677;SDS011;70042;52.494;5.502;2024-03-08T01:46:28;6.97;;;4.47;;
80677;SDS011;70042;52.494;5.502;2024-03-08T01:51:21;6.93;;;4.53;;
80677;SDS011;70042;52.494;5.502;2024-03-08T01:53:47;6.47;;;4.78;;
80677;SDS011;70042;52.494;5.502;2024-03-08T01:56:13;7.50;;;5.30;;
80677;SDS011;70042;52.494;5.502;2024-03-08T01:58:40;8.50;;;5.70;;
80677;SDS011;70042;52.494;5.502;2024-03-08T02:01:10;7.57;;;5.22;;
80677;SDS011;70042;52.494;5.502;2024-03-08T02:03:37;7.95;;;4.75;;
80677;SDS011;70042;52.494;5.502;2024-03-08T02:06:03;8.45;;;5.10;;
80677;SDS011;70042;52.494;5.502;2024-03-08T02:08:30;7.03;;;4.75;;
80677;SDS011;70042;52.494;5.502;2024-03-08T02:10:56;7.15;;;4.97;;
80677;SDS011;70042;52.494;5.502;2024-03-08T02:13:22;7.28;;;5.43;;
80677;SDS011;70042;52.494;5.502;2024-03-08T02:15:54;6.75;;;5.03;;
80677;SDS011;70042;52.494;5.502;2024-03-08T02:18:26;7.07;;;4.75;;
80677;SDS011;70042;52.494;5.502;2024-03-08T02:20:53;7.75;;;5.20;;
80677;SDS011;70042;52.494;5.502;2024-03-08T02:23:22;8.43;;;5.25;;
80677;SDS011;70042;52.494;5.502;2024-03-08T02:25:49;7.70;;;5.38;;
80677;SDS011;70042;52.494;5.502;2024-03-08T02:28:15;7.88;;;4.97;;
80677;SDS011;70042;52.494;5.502;2024-03-08T02:30:43;7.45;;;4.75;;
80677;SDS011;70042;52.494;5.502;2024-03-08T02:33:09;6.97;;;4.90;;
80677;SDS011;70042;52.494;5.502;2024-03-08T02:35:35;7.60;;;5.40;;
80677;SDS011;70042;52.494;5.502;2024-03-08T02:38:01;7.32;;;4.90;;
80677;SDS011;70042;52.494;5.502;2024-03-08T02:40:28;6.38;;;4.78;;
80677;SDS011;70042;52.494;5.502;2024-03-08T02:42:54;6.85;;;4.85;;
80677;SDS011;70042;52.494;5.502;2024-03-08T02:45:20;7.22;;;4.90;;
80677;SDS011;70042;52.494;5.502;2024-03-08T02:47:45;7.07;;;4.88;;
80677;SDS011;70042;52.494;5.502;2024-03-08T02:50:11;7.63;;;5.28;;
80677;SDS011;70042;52.494;5.502;2024-03-08T02:52:41;6.95;;;4.68;;
80677;SDS011;70042;52.494;5.502;2024-03-08T02:55:11;7.30;;;4.40;;
80677;SDS011;70042;52.494;5.502;2024-03-08T02:57:40;7.82;;;5.22;;
80677;SDS011;70042;52.494;5.502;2024-03-08T03:00:06;6.22;;;4.95;;
80677;SDS011;70042;52.494;5.502;2024-03-08T03:02:34;6.88;;;4.38;;
80677;SDS011;70042;52.494;5.502;2024-03-08T03:05:00;7.97;;;5.22;;
80677;SDS011;70042;52.494;5.502;2024-03-08T03:07:30;7.18;;;5.13;;
80677;SDS011;70042;52.494;5.502;2024-03-08T03:09:55;7.15;;;4.90;;
80677;SDS011;70042;52.494;5.502;2024-03-08T03:12:21;7.80;;;5.00;;
80677;SDS011;70042;52.494;5.502;2024-03-08T03:14:47;8.05;;;4.90;;
80677;SDS011;70042;52.494;5.502;2024-03-08T03:17:13;7.30;;;4.93;;
80677;SDS011;70042;52.494;5.502;2024-03-08T03:19:40;7.15;;;5.18;;
80677;SDS011;70042;52.494;5.502;2024-03-08T03:22:07;6.90;;;4.80;;
80677;SDS011;70042;52.494;5.502;2024-03-08T03:24:34;6.80;;;4.82;;
80677;SDS011;70042;52.494;5.502;2024-03-08T03:27:03;6.40;;;5.07;;
80677;SDS011;70042;52.494;5.502;2024-03-08T03:29:44;6.63;;;4.75;;
80677;SDS011;70042;52.494;5.502;2024-03-08T03:32:14;6.55;;;4.75;;
80677;SDS011;70042;52.494;5.502;2024-03-08T03:34:46;6.70;;;5.00;;
80677;SDS011;70042;52.494;5.502;2024-03-08T03:37:12;7.80;;;5.38;;
80677;SDS011;70042;52.494;5.502;2024-03-08T03:39:37;7.10;;;4.65;;
80677;SDS011;70042;52.494;5.502;2024-03-08T03:42:18;6.45;;;5.00;;
80677;SDS011;70042;52.494;5.502;2024-03-08T03:44:47;6.20;;;4.55;;
80677;SDS011;70042;52.494;5.502;2024-03-08T03:47:13;7.72;;;4.95;;
80677;SDS011;70042;52.494;5.502;2024-03-08T03:52:05;8.07;;;5.13;;
80677;SDS011;70042;52.494;5.502;2024-03-08T03:54:31;7.82;;;4.68;;
80677;SDS011;70042;52.494;5.502;2024-03-08T03:56:58;7.75;;;5.63;;
80677;SDS011;70042;52.494;5.502;2024-03-08T03:59:23;6.63;;;5.35;;
80677;SDS011;70042;52.494;5.502;2024-03-08T04:01:49;6.22;;;4.47;;
80677;SDS011;70042;52.494;5.502;2024-03-08T04:04:14;7.00;;;4.70;;
80677;SDS011;70042;52.494;5.502;2024-03-08T04:06:40;7.22;;;5.00;;
80677;SDS011;70042;52.494;5.502;2024-03-08T04:09:06;8.75;;;5.50;;
80677;SDS011;70042;52.494;5.502;2024-03-08T04:11:32;6.03;;;4.93;;
80677;SDS011;70042;52.494;5.502;2024-03-08T04:13:58;6.75;;;4.75;;
80677;SDS011;70042;52.494;5.502;2024-03-08T04:16:23;6.97;;;5.07;;
80677;SDS011;70042;52.494;5.502;2024-03-08T04:18:49;7.55;;;4.95;;
80677;SDS011;70042;52.494;5.502;2024-03-08T04:21:15;6.95;;;5.15;;
80677;SDS011;70042;52.494;5.502;2024-03-08T04:23:40;7.97;;;5.00;;
80677;SDS011;70042;52.494;5.502;2024-03-08T04:26:06;6.85;;;4.97;;
80677;SDS011;70042;52.494;5.502;2024-03-08T04:28:32;6.72;;;5.18;;
80677;SDS011;70042;52.494;5.502;2024-03-08T04:30:58;6.95;;;4.95;;
80677;SDS011;70042;52.494;5.502;2024-03-08T04:33:25;7.50;;;5.50;;
80677;SDS011;70042;52.494;5.502;2024-03-08T04:35:51;7.47;;;5.07;;
80677;SDS011;70042;52.494;5.502;2024-03-08T04:38:17;5.70;;;4.55;;
80677;SDS011;70042;52.494;5.502;2024-03-08T04:40:42;7.20;;;5.50;;
80677;SDS011;70042;52.494;5.502;2024-03-08T04:43:08;6.07;;;4.70;;
80677;SDS011;70042;52.494;5.502;2024-03-08T04:45:35;6.68;;;4.82;;
80677;SDS011;70042;52.494;5.502;2024-03-08T04:48:01;6.88;;;5.03;;
80677;SDS011;70042;52.494;5.502;2024-03-08T04:50:27;7.18;;;5.15;;
80677;SDS011;70042;52.494;5.502;2024-03-08T04:52:54;7.63;;;4.95;;
80677;SDS011;70042;52.494;5.502;2024-03-08T04:55:22;6.38;;;4.63;;
80677;SDS011;70042;52.494;5.502;2024-03-08T04:57:48;7.70;;;5.43;;
80677;SDS011;70042;52.494;5.502;2024-03-08T05:00:13;6.63;;;5.32;;
80677;SDS011;70042;52.494;5.502;2024-03-08T05:02:40;7.80;;;5.45;;
80677;SDS011;70042;52.494;5.502;2024-03-08T05:05:06;7.18;;;5.60;;
80677;SDS011;70042;52.494;5.502;2024-03-08T05:07:33;6.60;;;4.82;;
80677;SDS011;70042;52.494;5.502;2024-03-08T05:09:59;6.88;;;4.90;;
80677;SDS011;70042;52.494;5.502;2024-03-08T05:12:25;8.10;;;5.38;;
80677;SDS011;70042;52.494;5.502;2024-03-08T05:14:50;7.65;;;5.25;;
80677;SDS011;70042;52.494;5.502;2024-03-08T05:17:16;6.78;;;5.32;;
80677;SDS011;70042;52.494;5.502;2024-03-08T05:19:44;6.80;;;5.50;;
80677;SDS011;70042;52.494;5.502;2024-03-08T05:22:10;7.68;;;5.00;;
80677;SDS011;70042;52.494;5.502;2024-03-08T05:24:35;7.13;;;4.70;;
80677;SDS011;70042;52.494;5.502;2024-03-08T05:27:01;6.97;;;4.80;;
80677;SDS011;70042;52.494;5.502;2024-03-08T05:29:28;7.00;;;5.50;;
80677;SDS011;70042;52.494;5.502;2024-03-08T05:31:54;7.28;;;5.57;;
80677;SDS011;70042;52.494;5.502;2024-03-08T05:36:47;6.60;;;4.82;;
80677;SDS011;70042;52.494;5.502;2024-03-08T05:39:15;6.75;;;4.75;;
80677;SDS011;70042;52.494;5.502;2024-03-08T05:41:41;6.63;;;4.93;;
80677;SDS011;70042;52.494;5.502;2024-03-08T05:44:07;7.95;;;5.22;;
80677;SDS011;70042;52.494;5.502;2024-03-08T05:46:33;7.35;;;4.97;;
80677;SDS011;70042;52.494;5.502;2024-03-08T05:49:00;6.90;;;4.47;;
80677;SDS011;70042;52.494;5.502;2024-03-08T05:51:30;6.82;;;4.82;;
80677;SDS011;70042;52.494;5.502;2024-03-08T05:56:21;7.10;;;5.63;;
80677;SDS011;70042;52.494;5.502;2024-03-08T05:58:50;6.43;;;4.95;;
80677;SDS011;70042;52.494;5.502;2024-03-08T06:01:15;7.38;;;5.05;;
80677;SDS011;70042;52.494;5.502;2024-03-08T06:03:41;7.15;;;5.32;;
80677;SDS011;70042;52.494;5.502;2024-03-08T06:06:13;7.28;;;5.10;;
80677;SDS011;70042;52.494;5.502;2024-03-08T06:08:39;6.07;;;4.47;;
80677;SDS011;70042;52.494;5.502;2024-03-08T06:11:05;6.82;;;5.20;;
80677;SDS011;70042;52.494;5.502;2024-03-08T06:13:34;7.88;;;5.60;;
80677;SDS011;70042;52.494;5.502;2024-03-08T06:16:00;6.40;;;5.07;;
80677;SDS011;70042;52.494;5.502;2024-03-08T06:18:33;6.80;;;5.07;;
80677;SDS011;70042;52.494;5.502;2024-03-08T06:21:02;6.25;;;4.63;;
80677;SDS011;70042;52.494;5.502;2024-03-08T06:23:28;6.07;;;5.18;;
80677;SDS011;70042;52.494;5.502;2024-03-08T06:25:53;6.90;;;5.22;;
80677;SDS011;70042;52.494;5.502;2024-03-08T06:28:19;6.80;;;4.78;;
80677;SDS011;70042;52.494;5.502;2024-03-08T06:30:45;7.75;;;5.35;;
80677;SDS011;70042;52.494;5.502;2024-03-08T06:33:10;6.30;;;4.90;;
80677;SDS011;70042;52.494;5.502;2024-03-08T06:35:36;8.02;;;5.70;;
80677;SDS011;70042;52.494;5.502;2024-03-08T06:38:03;7.03;;;5.25;;
80677;SDS011;70042;52.494;5.502;2024-03-08T06:40:29;7.45;;;5.72;;
80677;SDS011;70042;52.494;5.502;2024-03-08T06:42:55;7.80;;;5.28;;
80677;SDS011;70042;52.494;5.502;2024-03-08T06:45:20;6.22;;;5.07;;
80677;SDS011;70042;52.494;5.502;2024-03-08T06:47:46;6.25;;;5.20;;
80677;SDS011;70042;52.494;5.502;2024-03-08T06:50:12;7.97;;;5.57;;
80677;SDS011;70042;52.494;5.502;2024-03-08T06:52:37;7.18;;;4.90;;
80677;SDS011;70042;52.494;5.502;2024-03-08T06:55:04;6.68;;;4.82;;
80677;SDS011;70042;52.494;5.502;2024-03-08T06:57:30;6.53;;;5.15;;
80677;SDS011;70042;52.494;5.502;2024-03-08T06:59:56;5.75;;;4.70;;
80677;SDS011;70042;52.494;5.502;2024-03-08T07:02:24;7.00;;;5.45;;
80677;SDS011;70042;52.494;5.502;2024-03-08T07:04:50;7.00;;;5.15;;
80677;SDS011;70042;52.494;5.502;2024-03-08T07:07:17;7.05;;;5.47;;
80677;SDS011;70042;52.494;5.502;2024-03-08T07:09:45;7.72;;;5.10;;
80677;SDS011;70042;52.494;5.502;2024-03-08T07:12:11;9.70;;;5.53;;
80677;SDS011;70042;52.494;5.502;2024-03-08T07:14:38;7.72;;;4.93;;
80677;SDS011;70042;52.494;5.502;2024-03-08T07:17:06;6.85;;;5.28;;
80677;SDS011;70042;52.494;5.502;2024-03-08T07:19:34;8.68;;;5.18;;
80677;SDS011;70042;52.494;5.502;2024-03-08T07:22:00;6.90;;;5.22;;
80677;SDS011;70042;52.494;5.502;2024-03-08T07:24:25;9.13;;;4.97;;
80677;SDS011;70042;52.494;5.502;2024-03-08T07:27:09;6.78;;;4.57;;
80677;SDS011;70042;52.494;5.502;2024-03-08T07:29:35;8.80;;;4.97;;
80677;SDS011;70042;52.494;5.502;2024-03-08T07:32:01;9.98;;;5.30;;
80677;SDS011;70042;52.494;5.502;2024-03-08T07:34:58;6.60;;;4.97;;
80677;SDS011;70042;52.494;5.502;2024-03-08T07:37:24;6.80;;;5.35;;
80677;SDS011;70042;52.494;5.502;2024-03-08T07:39:49;8.57;;;5.03;;
80677;SDS011;70042;52.494;5.502;2024-03-08T07:42:15;7.63;;;5.20;;
80677;SDS011;70042;52.494;5.502;2024-03-08T07:44:41;6.68;;;5.10;;
80677;SDS011;70042;52.494;5.502;2024-03-08T07:47:08;6.55;;;4.93;;
80677;SDS011;70042;52.494;5.502;2024-03-08T07:49:35;9.43;;;5.18;;
80677;SDS011;70042;52.494;5.502;2024-03-08T07:52:02;8.23;;;4.75;;
80677;SDS011;70042;52.494;5.502;2024-03-08T07:54:29;7.22;;;5.00;;
80677;SDS011;70042;52.494;5.502;2024-03-08T07:56:55;7.97;;;4.97;;
80677;SDS011;70042;52.494;5.502;2024-03-08T07:59:21;7.22;;;5.50;;
80677;SDS011;70042;52.494;5.502;2024-03-08T08:01:46;9.45;;;5.30;;
80677;SDS011;70042;52.494;5.502;2024-03-08T08:04:12;8.00;;;5.10;;
80677;SDS011;70042;52.494;5.502;2024-03-08T08:06:40;7.50;;;5.28;;
80677;SDS011;70042;52.494;5.502;2024-03-08T08:09:08;7.03;;;5.15;;
80677;SDS011;70042;52.494;5.502;2024-03-08T08:11:40;7.68;;;5.47;;
80677;SDS011;70042;52.494;5.502;2024-03-08T08:14:23;8.52;;;5.20;;
80677;SDS011;70042;52.494;5.502;2024-03-08T08:16:49;7.78;;;4.93;;
80677;SDS011;70042;52.494;5.502;2024-03-08T08:19:17;12.30;;;5.10;;
80677;SDS011;70042;52.494;5.502;2024-03-08T08:21:43;8.40;;;5.35;;
80677;SDS011;70042;52.494;5.502;2024-03-08T08:24:09;8.88;;;5.65;;
80677;SDS011;70042;52.494;5.502;2024-03-08T08:26:35;8.07;;;5.70;;
80677;SDS011;70042;52.494;5.502;2024-03-08T08:29:01;6.97;;;5.28;;
80677;SDS011;70042;52.494;5.502;2024-03-08T08:31:27;8.85;;;5.07;;
80677;SDS011;70042;52.494;5.502;2024-03-08T08:33:52;9.10;;;4.93;;
80677;SDS011;70042;52.494;5.502;2024-03-08T08:36:26;6.47;;;4.40;;
80677;SDS011;70042;52.494;5.502;2024-03-08T08:38:54;8.70;;;4.97;;
80677;SDS011;70042;52.494;5.502;2024-03-08T08:41:21;7.25;;;5.28;;
80677;SDS011;70042;52.494;5.502;2024-03-08T08:43:47;8.32;;;4.90;;
80677;SDS011;70042;52.494;5.502;2024-03-08T08:46:16;7.13;;;5.15;;
80677;SDS011;70042;52.494;5.502;2024-03-08T08:48:42;6.72;;;4.50;;
80677;SDS011;70042;52.494;5.502;2024-03-08T08:51:10;7.35;;;4.70;;
80677;SDS011;70042;52.494;5.502;2024-03-08T08:53:39;8.70;;;5.55;;
80677;SDS011;70042;52.494;5.502;2024-03-08T08:56:11;6.53;;;5.20;;
80677;SDS011;70042;52.494;5.502;2024-03-08T08:58:43;6.85;;;4.70;;
80677;SDS011;70042;52.494;5.502;2024-03-08T09:01:09;7.63;;;5.32;;
80677;SDS011;70042;52.494;5.502;2024-03-08T09:03:38;7.78;;;5.07;;
80677;SDS011;70042;52.494;5.502;2024-03-08T09:06:06;7.72;;;5.15;;
80677;SDS011;70042;52.494;5.502;2024-03-08T09:08:35;6.63;;;4.65;;
80677;SDS011;70042;52.494;5.502;2024-03-08T09:11:04;6.85;;;4.60;;
80677;SDS011;70042;52.494;5.502;2024-03-08T09:13:30;6.72;;;4.43;;
80677;SDS011;70042;52.494;5.502;2024-03-08T09:15:56;5.57;;;4.45;;
80677;SDS011;70042;52.494;5.502;2024-03-08T09:18:21;7.03;;;4.50;;
80677;SDS011;70042;52.494;5.502;2024-03-08T09:20:47;6.72;;;5.18;;
80677;SDS011;70042;52.494;5.502;2024-03-08T09:23:12;6.80;;;4.88;;
80677;SDS011;70042;52.494;5.502;2024-03-08T09:25:38;6.35;;;4.53;;
80677;SDS011;70042;52.494;5.502;2024-03-08T09:28:03;7.75;;;5.18;;
80677;SDS011;70042;52.494;5.502;2024-03-08T09:30:31;8.50;;;5.18;;
80677;SDS011;70042;52.494;5.502;2024-03-08T09:32:56;5.38;;;4.70;;
80677;SDS011;70042;52.494;5.502;2024-03-08T09:35:22;6.05;;;4.50;;
80677;SDS011;70042;52.494;5.502;2024-03-08T09:37:47;7.05;;;5.45;;
80677;SDS011;70042;52.494;5.502;2024-03-08T09:40:16;7.43;;;5.15;;
80677;SDS011;70042;52.494;5.502;2024-03-08T09:42:44;7.72;;;4.75;;
80677;SDS011;70042;52.494;5.502;2024-03-08T09:45:11;8.68;;;5.15;;
80677;SDS011;70042;52.494;5.502;2024-03-08T09:50:06;8.70;;;5.03;;
80677;SDS011;70042;52.494;5.502;2024-03-08T09:52:35;7.00;;;4.88;;
80677;SDS011;70042;52.494;5.502;2024-03-08T09:55:03;6.18;;;5.00;;
80677;SDS011;70042;52.494;5.502;2024-03-08T09:57:31;7.32;;;5.88;;
80677;SDS011;70042;52.494;5.502;2024-03-08T09:59:58;8.90;;;5.50;;
80677;SDS011;70042;52.494;5.502;2024-03-08T10:02:24;7.45;;;5.47;;
80677;SDS011;70042;52.494;5.502;2024-03-08T10:04:50;7.72;;;5.32;;
80677;SDS011;70042;52.494;5.502;2024-03-08T10:07:18;7.38;;;5.10;;
80677;SDS011;70042;52.494;5.502;2024-03-08T10:09:43;7.25;;;4.85;;
80677;SDS011;70042;52.494;5.502;2024-03-08T10:12:15;7.88;;;5.32;;
80677;SDS011;70042;52.494;5.502;2024-03-08T10:14:45;6.72;;;5.07;;
80677;SDS011;70042;52.494;5.502;2024-03-08T10:17:11;7.07;;;5.32;;
80677;SDS011;70042;52.494;5.502;2024-03-08T10:19:37;5.72;;;4.80;;
80677;SDS011;70042;52.494;5.502;2024-03-08T10:22:04;6.97;;;5.07;;
80677;SDS011;70042;52.494;5.502;2024-03-08T10:24:30;5.95;;;4.78;;
80677;SDS011;70042;52.494;5.502;2024-03-08T10:26:59;6.13;;;5.10;;
80677;SDS011;70042;52.494;5.502;2024-03-08T10:29:26;8.00;;;5.65;;
80677;SDS011;70042;52.494;5.502;2024-03-08T10:31:53;6.88;;;5.13;;
80677;SDS011;70042;52.494;5.502;2024-03-08T10:34:21;5.60;;;4.85;;
80677;SDS011;70042;52.494;5.502;2024-03-08T10:36:48;7.78;;;5.15;;
80677;SDS011;70042;52.494;5.502;2024-03-08T10:39:22;6.70;;;5.15;;
80677;SDS011;70042;52.494;5.502;2024-03-08T10:41:52;6.85;;;4.80;;
80677;SDS011;70042;52.494;5.502;2024-03-08T10:46:59;8.18;;;5.80;;
80677;SDS011;70042;52.494;5.502;2024-03-08T10:49:31;6.72;;;5.07;;
80677;SDS011;70042;52.494;5.502;2024-03-08T10:52:04;6.07;;;4.60;;
80677;SDS011;70042;52.494;5.502;2024-03-08T10:54:39;7.25;;;5.07;;
80677;SDS011;70042;52.494;5.502;2024-03-08T10:57:08;7.75;;;4.93;;
80677;SDS011;70042;52.494;5.502;2024-03-08T10:59:35;5.25;;;4.53;;
80677;SDS011;70042;52.494;5.502;2024-03-08T11:02:01;7.95;;;5.30;;
80677;SDS011;70042;52.494;5.502;2024-03-08T11:04:27;7.72;;;4.93;;
80677;SDS011;70042;52.494;5.502;2024-03-08T11:06:54;6.72;;;5.10;;
80677;SDS011;70042;52.494;5.502;2024-03-08T11:09:31;12.23;;;6.82;;
80677;SDS011;70042;52.494;5.502;2024-03-08T11:14:55;31.08;;;21.00;;
80677;SDS011;70042;52.494;5.502;2024-03-08T11:19:55;17.17;;;12.10;;
80677;SDS011;70042;52.494;5.502;2024-03-08T11:22:47;15.00;;;11.30;;
80677;SDS011;70042;52.494;5.502;2024-03-08T11:25:30;18.13;;;12.73;;
80677;SDS011;70042;52.494;5.502;2024-03-08T11:30:43;17.50;;;11.65;;
80677;SDS011;70042;52.494;5.502;2024-03-08T11:33:13;18.00;;;12.00;;
80677;SDS011;70042;52.494;5.502;2024-03-08T11:35:40;15.60;;;11.20;;
80677;SDS011;70042;52.494;5.502;2024-03-08T11:38:08;15.63;;;11.43;;
80677;SDS011;70042;52.494;5.502;2024-03-08T11:40:34;14.70;;;9.82;;
80677;SDS011;70042;52.494;5.502;2024-03-08T11:43:01;15.00;;;10.23;;
80677;SDS011;70042;52.494;5.502;2024-03-08T11:45:32;15.05;;;9.93;;
80677;SDS011;70042;52.494;5.502;2024-03-08T11:48:01;12.85;;;9.77;;
80677;SDS011;70042;52.494;5.502;2024-03-08T11:50:29;13.73;;;9.50;;
80677;SDS011;70042;52.494;5.502;2024-03-08T11:52:59;15.73;;;10.20;;
80677;SDS011;70042;52.494;5.502;2024-03-08T11:55:27;15.65;;;9.80;;
80677;SDS011;70042;52.494;5.502;2024-03-08T11:57:59;14.05;;;9.45;;
80677;SDS011;70042;52.494;5.502;2024-03-08T12:03:09;13.33;;;8.83;;
80677;SDS011;70042;52.494;5.502;2024-03-08T12:05:35;12.68;;;8.93;;
80677;SDS011;70042;52.494;5.502;2024-03-08T12:08:01;12.55;;;9.15;;
80677;SDS011;70042;52.494;5.502;2024-03-08T12:10:28;14.43;;;9.80;;
80677;SDS011;70042;52.494;5.502;2024-03-08T12:15:22;12.27;;;8.05;;
80677;SDS011;70042;52.494;5.502;2024-03-08T12:17:52;11.27;;;7.88;;
80677;SDS011;70042;52.494;5.502;2024-03-08T12:20:21;12.02;;;8.75;;
80677;SDS011;70042;52.494;5.502;2024-03-08T12:22:49;10.93;;;8.13;;
80677;SDS011;70042;52.494;5.502;2024-03-08T12:25:17;10.60;;;7.60;;
80677;SDS011;70042;52.494;5.502;2024-03-08T12:27:43;11.93;;;8.18;;
80677;SDS011;70042;52.494;5.502;2024-03-08T12:30:22;12.57;;;8.32;;
80677;SDS011;70042;52.494;5.502;2024-03-08T12:32:58;10.65;;;7.90;;
80677;SDS011;70042;52.494;5.502;2024-03-08T12:35:26;11.43;;;7.80;;
80677;SDS011;70042;52.494;5.502;2024-03-08T12:37:53;12.02;;;7.75;;
80677;SDS011;70042;52.494;5.502;2024-03-08T12:40:25;11.50;;;8.23;;
80677;SDS011;70042;52.494;5.502;2024-03-08T12:42:52;12.23;;;7.07;;
80677;SDS011;70042;52.494;5.502;2024-03-08T12:45:18;11.65;;;8.07;;
80677;SDS011;70042;52.494;5.502;2024-03-08T12:47:43;11.73;;;7.60;;
80677;SDS011;70042;52.494;5.502;2024-03-08T12:50:09;10.70;;;7.55;;
80677;SDS011;70042;52.494;5.502;2024-03-08T12:52:35;13.77;;;8.30;;
80677;SDS011;70042;52.494;5.502;2024-03-08T12:55:01;11.00;;;7.78;;
80677;SDS011;70042;52.494;5.502;2024-03-08T12:57:27;10.52;;;7.93;;
80677;SDS011;70042;52.494;5.502;2024-03-08T12:59:54;10.00;;;7.22;;
80677;SDS011;70042;52.494;5.502;2024-03-08T13:02:19;10.50;;;7.32;;
80677;SDS011;70042;52.494;5.502;2024-03-08T13:04:46;10.75;;;7.32;;
80677;SDS011;70042;52.494;5.502;2024-03-08T13:07:20;8.32;;;6.90;;
80677;SDS011;70042;52.494;5.502;2024-03-08T13:09:46;11.07;;;7.65;;
80677;SDS011;70042;52.494;5.502;2024-03-08T13:12:12;10.45;;;6.70;;
80677;SDS011;70042;52.494;5.502;2024-03-08T13:14:37;11.13;;;7.35;;
80677;SDS011;70042;52.494;5.502;2024-03-08T13:17:05;10.18;;;6.35;;
80677;SDS011;70042;52.494;5.502;2024-03-08T13:19:35;10.27;;;7.60;;
80677;SDS011;70042;52.494;5.502;2024-03-08T13:22:01;9.35;;;7.03;;
80677;SDS011;70042;52.494;5.502;2024-03-08T13:24:29;10.35;;;7.53;;
80677;SDS011;70042;52.494;5.502;2024-03-08T13:26:55;10.30;;;6.78;;
80677;SDS011;70042;52.494;5.502;2024-03-08T13:29:21;8.57;;;6.68;;
80677;SDS011;70042;52.494;5.502;2024-03-08T13:31:46;9.85;;;7.32;;
80677;SDS011;70042;52.494;5.502;2024-03-08T13:34:16;9.52;;;6.80;;
80677;SDS011;70042;52.494;5.502;2024-03-08T13:36:43;10.27;;;7.32;;
80677;SDS011;70042;52.494;5.502;2024-03-08T13:39:09;10.18;;;7.38;;
80677;SDS011;70042;52.494;5.502;2024-03-08T13:41:40;8.77;;;6.82;;
80677;SDS011;70042;52.494;5.502;2024-03-08T13:44:10;9.32;;;6.93;;
80677;SDS011;70042;52.494;5.502;2024-03-08T13:46:35;10.50;;;6.47;;
80677;SDS011;70042;52.494;5.502;2024-03-08T13:49:05;9.80;;;6.50;;
80677;SDS011;70042;52.494;5.502;2024-03-08T13:51:33;8.35;;;6.57;;
80677;SDS011;70042;52.494;5.502;2024-03-08T13:54:01;9.73;;;7.00;;
80677;SDS011;70042;52.494;5.502;2024-03-08T13:56:32;12.23;;;6.68;;
80677;SDS011;70042;52.494;5.502;2024-03-08T13:58:57;9.75;;;6.88;;
80677;SDS011;70042;52.494;5.502;2024-03-08T14:01:23;8.57;;;6.38;;
80677;SDS011;70042;52.494;5.502;2024-03-08T14:03:48;9.18;;;6.25;;
80677;SDS011;70042;52.494;5.502;2024-03-08T14:06:14;10.05;;;6.65;;
80677;SDS011;70042;52.494;5.502;2024-03-08T14:08:40;9.35;;;6.15;;
80677;SDS011;70042;52.494;5.502;2024-03-08T14:11:05;8.35;;;6.00;;
80677;SDS011;70042;52.494;5.502;2024-03-08T14:13:44;9.20;;;6.35;;
80677;SDS011;70042;52.494;5.502;2024-03-08T14:18:36;9.35;;;6.47;;
80677;SDS011;70042;52.494;5.502;2024-03-08T14:21:02;8.50;;;6.50;;
80677;SDS011;70042;52.494;5.502;2024-03-08T14:23:29;9.75;;;6.47;;
80677;SDS011;70042;52.494;5.502;2024-03-08T14:25:55;10.90;;;6.80;;
80677;SDS011;70042;52.494;5.502;2024-03-08T14:28:20;8.88;;;6.00;;
80677;SDS011;70042;52.494;5.502;2024-03-08T14:30:48;10.50;;;6.35;;
80677;SDS011;70042;52.494;5.502;2024-03-08T14:35:40;7.93;;;5.83;;
80677;SDS011;70042;52.494;5.502;2024-03-08T14:38:06;7.93;;;5.47;;
80677;SDS011;70042;52.494;5.502;2024-03-08T14:40:36;8.43;;;6.43;;
80677;SDS011;70042;52.494;5.502;2024-03-08T14:43:02;10.73;;;6.75;;
80677;SDS011;70042;52.494;5.502;2024-03-08T14:45:27;7.22;;;6.03;;
80677;SDS011;70042;52.494;5.502;2024-03-08T14:47:53;8.40;;;6.15;;
80677;SDS011;70042;52.494;5.502;2024-03-08T14:50:20;9.38;;;6.20;;
80677;SDS011;70042;52.494;5.502;2024-03-08T14:52:48;9.90;;;6.82;;
80677;SDS011;70042;52.494;5.502;2024-03-08T14:55:14;7.05;;;5.95;;
80677;SDS011;70042;52.494;5.502;2024-03-08T14:57:44;8.30;;;6.05;;
80677;SDS011;70042;52.494;5.502;2024-03-08T15:00:11;11.05;;;6.13;;
80677;SDS011;70042;52.494;5.502;2024-03-08T15:02:52;7.75;;;6.30;;
80677;SDS011;70042;52.494;5.502;2024-03-08T15:05:22;7.88;;;6.20;;
80677;SDS011;70042;52.494;5.502;2024-03-08T15:07:51;7.47;;;5.72;;
80677;SDS011;70042;52.494;5.502;2024-03-08T15:10:17;11.25;;;6.32;;
80677;SDS011;70042;52.494;5.502;2024-03-08T15:12:45;8.63;;;6.32;;
80677;SDS011;70042;52.494;5.502;2024-03-08T15:15:11;7.30;;;5.30;;
80677;SDS011;70042;52.494;5.502;2024-03-08T15:17:39;9.07;;;6.95;;
80677;SDS011;70042;52.494;5.502;2024-03-08T15:20:07;10.50;;;6.35;;
80677;SDS011;70042;52.494;5.502;2024-03-08T15:22:41;9.20;;;6.00;;
80677;SDS011;70042;52.494;5.502;2024-03-08T15:25:07;9.77;;;6.03;;
80677;SDS011;70042;52.494;5.502;2024-03-08T15:27:36;8.65;;;5.93;;